sensor_id;sensor_type;location;lat;lon;timestamp;temperature;humidity
15937;DHT22;9163;48.818;8.976;2023-07-31T00:01:26;14.60;99.90
15937;DHT22;9163;48.818;8.976;2023-07-31T00:03:55;14.60;99.90
15937;DHT22;9163;48.818;8.976;2023-07-31T00:06:22;14.60;99.90
15937;DHT22;9163;48.818;8.976;2023-07-31T00:08:50;14.50;99.90
15937;DHT22;9163;48.818;8.976;2023-07-31T00:11:17;14.50;99.90
15937;DHT22;9163;48.818;8.976;2023-07-31T00:13:44;14.40;99.90
15937;DHT22;9163;48.818;8.976;2023-07-31T00:16:11;14.40;99.90
15937;DHT22;9163;48.818;8.976;2023-07-31T00:18:39;14.30;99.90
15937;DHT22;9163;48.818;8.976;2023-07-31T00:21:07;14.30;99.90
15937;DHT22;9163;48.818;8.976;2023-07-31T00:23:34;14.20;99.90
15937;DHT22;9163;48.818;8.976;2023-07-31T00:26:02;14.30;99.90
15937;DHT22;9163;48.818;8.976;2023-07-31T00:28:29;14.30;99.90
15937;DHT22;9163;48.818;8.976;2023-07-31T00:30:56;14.30;99.90
15937;DHT22;9163;48.818;8.976;2023-07-31T00:33:23;14.20;99.90
15937;DHT22;9163;48.818;8.976;2023-07-31T00:35:50;14.10;99.90
15937;DHT22;9163;48.818;8.976;2023-07-31T00:38:19;14.10;99.90
15937;DHT22;9163;48.818;8.976;2023-07-31T00:40:46;14.10;99.90
15937;DHT22;9163;48.818;8.976;2023-07-31T00:43:14;14.00;99.90
15937;DHT22;9163;48.818;8.976;2023-07-31T00:45:41;14.10;99.90
15937;DHT22;9163;48.818;8.976;2023-07-31T00:48:08;14.10;99.90
15937;DHT22;9163;48.818;8.976;2023-07-31T00:50:35;14.10;99.90
15937;DHT22;9163;48.818;8.976;2023-07-31T00:53:03;14.00;99.90
15937;DHT22;9163;48.818;8.976;2023-07-31T00:55:32;14.00;99.90
15937;DHT22;9163;48.818;8.976;2023-07-31T00:57:59;14.00;99.90
15937;DHT22;9163;48.818;8.976;2023-07-31T01:00:27;14.00;99.90
15937;DHT22;9163;48.818;8.976;2023-07-31T01:02:54;13.90;99.90
15937;DHT22;9163;48.818;8.976;2023-07-31T01:05:27;14.00;99.90
15937;DHT22;9163;48.818;8.976;2023-07-31T01:08:04;13.80;99.90
15937;DHT22;9163;48.818;8.976;2023-07-31T01:10:39;13.90;99.90
15937;DHT22;9163;48.818;8.976;2023-07-31T01:13:08;13.90;99.90
15937;DHT22;9163;48.818;8.976;2023-07-31T01:15:36;13.80;99.90
15937;DHT22;9163;48.818;8.976;2023-07-31T01:18:04;13.80;99.90
15937;DHT22;9163;48.818;8.976;2023-07-31T01:20:33;13.80;99.90
15937;DHT22;9163;48.818;8.976;2023-07-31T01:23:15;13.70;99.90
15937;DHT22;9163;48.818;8.976;2023-07-31T01:25:56;13.70;99.90
15937;DHT22;9163;48.818;8.976;2023-07-31T01:28:29;13.70;99.90
15937;DHT22;9163;48.818;8.976;2023-07-31T01:30:59;13.70;99.90
15937;DHT22;9163;48.818;8.976;2023-07-31T01:33:28;13.70;99.90
15937;DHT22;9163;48.818;8.976;2023-07-31T01:35:56;13.70;99.90
15937;DHT22;9163;48.818;8.976;2023-07-31T01:38:23;13.60;99.90
15937;DHT22;9163;48.818;8.976;2023-07-31T01:40:53;13.60;99.90
15937;DHT22;9163;48.818;8.976;2023-07-31T01:43:20;13.60;99.90
15937;DHT22;9163;48.818;8.976;2023-07-31T01:45:47;13.60;99.90
15937;DHT22;9163;48.818;8.976;2023-07-31T01:48:15;13.70;99.90
15937;DHT22;9163;48.818;8.976;2023-07-31T01:50:42;13.70;99.90
15937;DHT22;9163;48.818;8.976;2023-07-31T01:53:09;13.70;99.90
15937;DHT22;9163;48.818;8.976;2023-07-31T01:55:38;13.60;99.90
15937;DHT22;9163;48.818;8.976;2023-07-31T01:58:06;13.60;99.90
15937;DHT22;9163;48.818;8.976;2023-07-31T02:00:33;13.60;99.90
15937;DHT22;9163;48.818;8.976;2023-07-31T02:03:01;13.60;99.90
15937;DHT22;9163;48.818;8.976;2023-07-31T02:05:28;13.60;99.90
15937;DHT22;9163;48.818;8.976;2023-07-31T02:07:55;13.60;99.90
15937;DHT22;9163;48.818;8.976;2023-07-31T02:10:23;13.60;99.90
15937;DHT22;9163;48.818;8.976;2023-07-31T02:12:50;13.50;99.90
15937;DHT22;9163;48.818;8.976;2023-07-31T02:15:19;13.50;99.90
15937;DHT22;9163;48.818;8.976;2023-07-31T02:17:47;13.60;99.90
15937;DHT22;9163;48.818;8.976;2023-07-31T02:20:14;13.60;99.90
15937;DHT22;9163;48.818;8.976;2023-07-31T02:22:41;13.60;99.90
15937;DHT22;9163;48.818;8.976;2023-07-31T02:25:08;13.50;99.90
15937;DHT22;9163;48.818;8.976;2023-07-31T02:27:36;13.50;99.90
15937;DHT22;9163;48.818;8.976;2023-07-31T02:30:03;13.40;99.90
15937;DHT22;9163;48.818;8.976;2023-07-31T02:32:32;13.40;99.90
15937;DHT22;9163;48.818;8.976;2023-07-31T02:34:59;13.40;99.90
15937;DHT22;9163;48.818;8.976;2023-07-31T02:37:28;13.40;99.90
15937;DHT22;9163;48.818;8.976;2023-07-31T02:39:55;13.30;99.90
15937;DHT22;9163;48.818;8.976;2023-07-31T02:42:22;13.30;99.90
15937;DHT22;9163;48.818;8.976;2023-07-31T02:44:50;13.30;99.90
15937;DHT22;9163;48.818;8.976;2023-07-31T02:47:21;13.20;99.90
15937;DHT22;9163;48.818;8.976;2023-07-31T02:49:50;13.20;99.90
15937;DHT22;9163;48.818;8.976;2023-07-31T02:52:17;13.20;99.90
15937;DHT22;9163;48.818;8.976;2023-07-31T02:54:45;13.30;99.90
15937;DHT22;9163;48.818;8.976;2023-07-31T02:57:12;13.30;99.90
15937;DHT22;9163;48.818;8.976;2023-07-31T02:59:40;13.30;99.90
15937;DHT22;9163;48.818;8.976;2023-07-31T03:02:07;13.40;99.90
15937;DHT22;9163;48.818;8.976;2023-07-31T03:04:34;13.40;99.90
15937;DHT22;9163;48.818;8.976;2023-07-31T03:07:03;13.50;99.90
15937;DHT22;9163;48.818;8.976;2023-07-31T03:09:31;13.50;99.90
15937;DHT22;9163;48.818;8.976;2023-07-31T03:11:58;13.50;99.90
15937;DHT22;9163;48.818;8.976;2023-07-31T03:14:25;13.60;99.90
15937;DHT22;9163;48.818;8.976;2023-07-31T03:16:53;13.60;99.90
15937;DHT22;9163;48.818;8.976;2023-07-31T03:19:20;13.60;99.90
15937;DHT22;9163;48.818;8.976;2023-07-31T03:21:48;13.60;99.90
15937;DHT22;9163;48.818;8.976;2023-07-31T03:24:16;13.60;99.90
15937;DHT22;9163;48.818;8.976;2023-07-31T03:26:43;13.60;99.90
15937;DHT22;9163;48.818;8.976;2023-07-31T03:29:11;13.60;99.90
15937;DHT22;9163;48.818;8.976;2023-07-31T03:31:38;13.60;99.90
15937;DHT22;9163;48.818;8.976;2023-07-31T03:34:05;13.70;99.90
15937;DHT22;9163;48.818;8.976;2023-07-31T03:36:33;13.70;99.90
15937;DHT22;9163;48.818;8.976;2023-07-31T03:39:00;13.70;99.90
15937;DHT22;9163;48.818;8.976;2023-07-31T03:41:28;13.70;99.90
15937;DHT22;9163;48.818;8.976;2023-07-31T03:43:56;13.80;99.90
15937;DHT22;9163;48.818;8.976;2023-07-31T03:46:23;13.80;99.90
15937;DHT22;9163;48.818;8.976;2023-07-31T03:48:51;13.80;99.90
15937;DHT22;9163;48.818;8.976;2023-07-31T03:51:18;13.90;99.90
15937;DHT22;9163;48.818;8.976;2023-07-31T03:53:45;13.90;99.90
15937;DHT22;9163;48.818;8.976;2023-07-31T03:56:13;13.90;99.90
15937;DHT22;9163;48.818;8.976;2023-07-31T03:58:42;13.90;99.90
15937;DHT22;9163;48.818;8.976;2023-07-31T04:01:09;14.00;99.90
15937;DHT22;9163;48.818;8.976;2023-07-31T04:03:37;14.00;99.90
15937;DHT22;9163;48.818;8.976;2023-07-31T04:06:04;14.00;99.90
15937;DHT22;9163;48.818;8.976;2023-07-31T04:08:33;14.10;99.90
15937;DHT22;9163;48.818;8.976;2023-07-31T04:11:00;14.10;99.90
15937;DHT22;9163;48.818;8.976;2023-07-31T04:13:29;14.10;99.90
15937;DHT22;9163;48.818;8.976;2023-07-31T04:15:58;14.10;99.90
15937;DHT22;9163;48.818;8.976;2023-07-31T04:18:26;14.10;99.90
15937;DHT22;9163;48.818;8.976;2023-07-31T04:20:53;14.10;99.90
15937;DHT22;9163;48.818;8.976;2023-07-31T04:23:20;14.20;99.90
15937;DHT22;9163;48.818;8.976;2023-07-31T04:25:47;14.20;99.90
15937;DHT22;9163;48.818;8.976;2023-07-31T04:28:14;14.20;99.90
15937;DHT22;9163;48.818;8.976;2023-07-31T04:30:42;14.30;99.90
15937;DHT22;9163;48.818;8.976;2023-07-31T04:33:10;14.30;99.90
15937;DHT22;9163;48.818;8.976;2023-07-31T04:35:37;14.30;99.90
15937;DHT22;9163;48.818;8.976;2023-07-31T04:38:05;14.40;99.90
15937;DHT22;9163;48.818;8.976;2023-07-31T04:40:32;14.40;99.90
15937;DHT22;9163;48.818;8.976;2023-07-31T04:42:59;14.50;99.90
15937;DHT22;9163;48.818;8.976;2023-07-31T04:45:26;14.50;99.90
15937;DHT22;9163;48.818;8.976;2023-07-31T04:47:54;14.50;99.90
15937;DHT22;9163;48.818;8.976;2023-07-31T04:50:22;14.60;99.90
15937;DHT22;9163;48.818;8.976;2023-07-31T04:52:49;14.60;99.90
15937;DHT22;9163;48.818;8.976;2023-07-31T04:55:17;14.60;99.90
15937;DHT22;9163;48.818;8.976;2023-07-31T04:57:44;14.60;99.90
15937;DHT22;9163;48.818;8.976;2023-07-31T05:00:11;14.60;99.90
15937;DHT22;9163;48.818;8.976;2023-07-31T05:02:39;14.60;99.90
15937;DHT22;9163;48.818;8.976;2023-07-31T05:05:06;14.60;99.90
15937;DHT22;9163;48.818;8.976;2023-07-31T05:07:35;14.60;99.90
15937;DHT22;9163;48.818;8.976;2023-07-31T05:10:03;14.50;99.90
15937;DHT22;9163;48.818;8.976;2023-07-31T05:12:30;14.60;99.90
15937;DHT22;9163;48.818;8.976;2023-07-31T05:14:57;14.50;99.90
15937;DHT22;9163;48.818;8.976;2023-07-31T05:17:25;14.50;99.90
15937;DHT22;9163;48.818;8.976;2023-07-31T05:19:52;14.60;99.90
15937;DHT22;9163;48.818;8.976;2023-07-31T05:22:19;14.60;99.90
15937;DHT22;9163;48.818;8.976;2023-07-31T05:24:48;14.60;99.90
15937;DHT22;9163;48.818;8.976;2023-07-31T05:27:15;14.60;99.90
15937;DHT22;9163;48.818;8.976;2023-07-31T05:29:44;14.50;99.90
15937;DHT22;9163;48.818;8.976;2023-07-31T05:32:12;14.60;99.90
15937;DHT22;9163;48.818;8.976;2023-07-31T05:34:39;14.60;99.90
15937;DHT22;9163;48.818;8.976;2023-07-31T05:37:06;14.70;99.90
15937;DHT22;9163;48.818;8.976;2023-07-31T05:39:33;14.80;99.90
15937;DHT22;9163;48.818;8.976;2023-07-31T05:42:02;14.80;99.90
15937;DHT22;9163;48.818;8.976;2023-07-31T05:44:29;14.80;99.90
15937;DHT22;9163;48.818;8.976;2023-07-31T05:46:57;14.80;99.90
15937;DHT22;9163;48.818;8.976;2023-07-31T05:49:24;14.90;99.90
15937;DHT22;9163;48.818;8.976;2023-07-31T05:51:51;15.00;99.90
15937;DHT22;9163;48.818;8.976;2023-07-31T05:54:18;15.00;99.90
15937;DHT22;9163;48.818;8.976;2023-07-31T05:56:46;15.10;99.90
15937;DHT22;9163;48.818;8.976;2023-07-31T05:59:16;15.20;99.90
15937;DHT22;9163;48.818;8.976;2023-07-31T06:01:43;15.40;99.90
15937;DHT22;9163;48.818;8.976;2023-07-31T06:04:10;15.40;99.90
15937;DHT22;9163;48.818;8.976;2023-07-31T06:06:37;15.60;99.90
15937;DHT22;9163;48.818;8.976;2023-07-31T06:09:05;15.70;99.90
15937;DHT22;9163;48.818;8.976;2023-07-31T06:11:33;15.90;99.90
15937;DHT22;9163;48.818;8.976;2023-07-31T06:14:00;16.00;99.90
15937;DHT22;9163;48.818;8.976;2023-07-31T06:16:28;16.20;99.90
15937;DHT22;9163;48.818;8.976;2023-07-31T06:18:56;16.30;99.90
15937;DHT22;9163;48.818;8.976;2023-07-31T06:21:23;16.40;99.90
15937;DHT22;9163;48.818;8.976;2023-07-31T06:23:50;16.60;99.90
15937;DHT22;9163;48.818;8.976;2023-07-31T06:26:18;16.80;99.90
15937;DHT22;9163;48.818;8.976;2023-07-31T06:28:45;16.80;96.10
15937;DHT22;9163;48.818;8.976;2023-07-31T06:31:12;16.80;90.50
15937;DHT22;9163;48.818;8.976;2023-07-31T06:33:41;16.90;91.20
15937;DHT22;9163;48.818;8.976;2023-07-31T06:36:08;16.80;79.30
15937;DHT22;9163;48.818;8.976;2023-07-31T06:38:35;17.00;90.50
15937;DHT22;9163;48.818;8.976;2023-07-31T06:41:03;17.30;86.80
15937;DHT22;9163;48.818;8.976;2023-07-31T06:43:30;17.40;60.00
15937;DHT22;9163;48.818;8.976;2023-07-31T06:45:59;17.50;60.30
15937;DHT22;9163;48.818;8.976;2023-07-31T06:48:27;17.50;63.90
15937;DHT22;9163;48.818;8.976;2023-07-31T06:50:55;17.60;56.10
15937;DHT22;9163;48.818;8.976;2023-07-31T06:53:22;17.60;46.70
15937;DHT22;9163;48.818;8.976;2023-07-31T06:55:50;17.40;47.00
15937;DHT22;9163;48.818;8.976;2023-07-31T06:58:18;17.30;44.10
15937;DHT22;9163;48.818;8.976;2023-07-31T07:00:45;17.30;38.10
15937;DHT22;9163;48.818;8.976;2023-07-31T07:03:12;17.40;42.30
15937;DHT22;9163;48.818;8.976;2023-07-31T07:05:40;17.60;37.20
15937;DHT22;9163;48.818;8.976;2023-07-31T07:08:09;17.70;34.30
15937;DHT22;9163;48.818;8.976;2023-07-31T07:10:37;17.90;25.50
15937;DHT22;9163;48.818;8.976;2023-07-31T07:13:04;17.90;25.20
15937;DHT22;9163;48.818;8.976;2023-07-31T07:15:31;17.90;19.60
15937;DHT22;9163;48.818;8.976;2023-07-31T07:17:58;17.90;23.20
15937;DHT22;9163;48.818;8.976;2023-07-31T07:20:26;17.90;23.80
15937;DHT22;9163;48.818;8.976;2023-07-31T07:22:53;18.00;19.30
15937;DHT22;9163;48.818;8.976;2023-07-31T07:25:21;17.80;24.50
15937;DHT22;9163;48.818;8.976;2023-07-31T07:27:49;17.90;30.50
15937;DHT22;9163;48.818;8.976;2023-07-31T07:30:16;17.90;25.20
15937;DHT22;9163;48.818;8.976;2023-07-31T07:32:43;17.90;30.40
15937;DHT22;9163;48.818;8.976;2023-07-31T07:35:11;17.90;36.70
15937;DHT22;9163;48.818;8.976;2023-07-31T07:37:39;17.90;42.90
15937;DHT22;9163;48.818;8.976;2023-07-31T07:40:07;18.00;35.70
15937;DHT22;9163;48.818;8.976;2023-07-31T07:42:36;18.10;33.90
15937;DHT22;9163;48.818;8.976;2023-07-31T07:45:04;18.20;42.70
15937;DHT22;9163;48.818;8.976;2023-07-31T07:47:32;18.40;31.30
15937;DHT22;9163;48.818;8.976;2023-07-31T07:49:59;18.60;24.50
15937;DHT22;9163;48.818;8.976;2023-07-31T07:52:26;18.70;19.10
15937;DHT22;9163;48.818;8.976;2023-07-31T07:54:53;18.90;11.40
15937;DHT22;9163;48.818;8.976;2023-07-31T07:57:21;18.90;8.40
15937;DHT22;9163;48.818;8.976;2023-07-31T07:59:49;18.90;1.00
15937;DHT22;9163;48.818;8.976;2023-07-31T08:02:16;18.90;1.00
15937;DHT22;9163;48.818;8.976;2023-07-31T08:04:44;18.80;1.00
15937;DHT22;9163;48.818;8.976;2023-07-31T08:07:11;18.90;1.00
15937;DHT22;9163;48.818;8.976;2023-07-31T08:09:39;19.00;1.00
15937;DHT22;9163;48.818;8.976;2023-07-31T08:12:07;19.10;1.00
15937;DHT22;9163;48.818;8.976;2023-07-31T08:14:34;19.30;1.00
15937;DHT22;9163;48.818;8.976;2023-07-31T08:17:03;19.60;1.00
15937;DHT22;9163;48.818;8.976;2023-07-31T08:19:30;19.50;1.00
15937;DHT22;9163;48.818;8.976;2023-07-31T08:21:58;19.50;1.00
15937;DHT22;9163;48.818;8.976;2023-07-31T08:24:25;19.40;1.00
15937;DHT22;9163;48.818;8.976;2023-07-31T08:26:52;19.60;1.00
15937;DHT22;9163;48.818;8.976;2023-07-31T08:29:19;19.60;1.00
15937;DHT22;9163;48.818;8.976;2023-07-31T08:31:46;19.10;1.00
15937;DHT22;9163;48.818;8.976;2023-07-31T08:34:15;19.20;1.00
15937;DHT22;9163;48.818;8.976;2023-07-31T08:36:42;19.40;1.00
15937;DHT22;9163;48.818;8.976;2023-07-31T08:39:10;19.40;1.00
15937;DHT22;9163;48.818;8.976;2023-07-31T08:41:38;19.80;1.00
15937;DHT22;9163;48.818;8.976;2023-07-31T08:44:06;20.20;1.00
15937;DHT22;9163;48.818;8.976;2023-07-31T08:46:34;20.40;1.00
15937;DHT22;9163;48.818;8.976;2023-07-31T08:49:04;20.30;1.00
15937;DHT22;9163;48.818;8.976;2023-07-31T08:51:34;20.10;1.00
15937;DHT22;9163;48.818;8.976;2023-07-31T08:54:01;20.30;1.00
15937;DHT22;9163;48.818;8.976;2023-07-31T08:56:31;20.20;1.00
15937;DHT22;9163;48.818;8.976;2023-07-31T08:58:59;20.10;1.00
15937;DHT22;9163;48.818;8.976;2023-07-31T09:01:30;19.90;1.00
15937;DHT22;9163;48.818;8.976;2023-07-31T09:03:59;19.90;1.00
15937;DHT22;9163;48.818;8.976;2023-07-31T09:06:28;20.30;1.00
15937;DHT22;9163;48.818;8.976;2023-07-31T09:08:58;20.40;1.00
15937;DHT22;9163;48.818;8.976;2023-07-31T09:11:26;20.40;1.00
15937;DHT22;9163;48.818;8.976;2023-07-31T09:13:57;20.10;1.00
15937;DHT22;9163;48.818;8.976;2023-07-31T09:16:27;20.40;1.00
15937;DHT22;9163;48.818;8.976;2023-07-31T09:18:56;20.40;1.00
15937;DHT22;9163;48.818;8.976;2023-07-31T09:21:24;20.60;1.00
15937;DHT22;9163;48.818;8.976;2023-07-31T09:23:54;20.20;1.00
15937;DHT22;9163;48.818;8.976;2023-07-31T09:26:33;20.00;1.00
15937;DHT22;9163;48.818;8.976;2023-07-31T09:29:00;19.80;1.00
15937;DHT22;9163;48.818;8.976;2023-07-31T09:31:32;19.90;1.00
15937;DHT22;9163;48.818;8.976;2023-07-31T09:34:00;19.70;1.00
15937;DHT22;9163;48.818;8.976;2023-07-31T09:36:29;19.70;1.00
15937;DHT22;9163;48.818;8.976;2023-07-31T09:39:02;19.80;1.00
15937;DHT22;9163;48.818;8.976;2023-07-31T09:41:31;20.10;1.00
15937;DHT22;9163;48.818;8.976;2023-07-31T09:44:03;20.30;1.00
15937;DHT22;9163;48.818;8.976;2023-07-31T09:46:30;20.30;1.00
15937;DHT22;9163;48.818;8.976;2023-07-31T09:49:07;20.40;1.00
15937;DHT22;9163;48.818;8.976;2023-07-31T09:51:36;20.30;1.00
15937;DHT22;9163;48.818;8.976;2023-07-31T09:54:10;20.30;1.00
15937;DHT22;9163;48.818;8.976;2023-07-31T09:56:42;20.50;1.00
15937;DHT22;9163;48.818;8.976;2023-07-31T09:59:12;20.70;1.00
15937;DHT22;9163;48.818;8.976;2023-07-31T10:01:40;20.80;1.00
15937;DHT22;9163;48.818;8.976;2023-07-31T10:04:08;20.90;1.00
15937;DHT22;9163;48.818;8.976;2023-07-31T10:06:36;21.30;1.00
15937;DHT22;9163;48.818;8.976;2023-07-31T10:09:06;21.60;1.00
15937;DHT22;9163;48.818;8.976;2023-07-31T10:11:38;21.80;1.00
15937;DHT22;9163;48.818;8.976;2023-07-31T10:14:11;21.60;1.00
15937;DHT22;9163;48.818;8.976;2023-07-31T10:16:39;21.50;1.00
15937;DHT22;9163;48.818;8.976;2023-07-31T10:19:07;21.40;1.00
15937;DHT22;9163;48.818;8.976;2023-07-31T10:21:36;21.60;1.00
15937;DHT22;9163;48.818;8.976;2023-07-31T10:24:04;21.80;1.00
15937;DHT22;9163;48.818;8.976;2023-07-31T10:26:32;21.80;1.00
15937;DHT22;9163;48.818;8.976;2023-07-31T10:29:00;22.10;1.00
15937;DHT22;9163;48.818;8.976;2023-07-31T10:31:29;22.20;1.00
15937;DHT22;9163;48.818;8.976;2023-07-31T10:33:57;22.00;1.00
15937;DHT22;9163;48.818;8.976;2023-07-31T10:36:25;22.20;1.00
15937;DHT22;9163;48.818;8.976;2023-07-31T10:38:54;22.50;1.00
15937;DHT22;9163;48.818;8.976;2023-07-31T10:41:28;22.90;1.00
15937;DHT22;9163;48.818;8.976;2023-07-31T10:43:58;23.30;1.00
15937;DHT22;9163;48.818;8.976;2023-07-31T10:46:25;23.20;1.00
15937;DHT22;9163;48.818;8.976;2023-07-31T10:49:00;23.00;1.00
15937;DHT22;9163;48.818;8.976;2023-07-31T10:51:32;23.20;1.00
15937;DHT22;9163;48.818;8.976;2023-07-31T10:54:14;22.60;1.00
15937;DHT22;9163;48.818;8.976;2023-07-31T10:56:45;22.40;1.00
15937;DHT22;9163;48.818;8.976;2023-07-31T10:59:13;22.30;1.00
15937;DHT22;9163;48.818;8.976;2023-07-31T11:01:53;22.40;1.00
15937;DHT22;9163;48.818;8.976;2023-07-31T11:04:25;22.20;1.00
15937;DHT22;9163;48.818;8.976;2023-07-31T11:06:56;22.20;1.00
15937;DHT22;9163;48.818;8.976;2023-07-31T11:09:27;22.10;1.00
15937;DHT22;9163;48.818;8.976;2023-07-31T11:11:55;21.70;1.00
15937;DHT22;9163;48.818;8.976;2023-07-31T11:14:23;21.80;1.00
15937;DHT22;9163;48.818;8.976;2023-07-31T11:16:50;22.00;1.00
15937;DHT22;9163;48.818;8.976;2023-07-31T11:19:21;22.00;1.00
15937;DHT22;9163;48.818;8.976;2023-07-31T11:21:51;22.30;1.00
15937;DHT22;9163;48.818;8.976;2023-07-31T11:24:18;21.90;1.00
15937;DHT22;9163;48.818;8.976;2023-07-31T11:26:50;21.90;1.00
15937;DHT22;9163;48.818;8.976;2023-07-31T11:29:17;21.90;1.00
15937;DHT22;9163;48.818;8.976;2023-07-31T11:31:45;22.10;1.00
15937;DHT22;9163;48.818;8.976;2023-07-31T11:34:13;22.20;1.00
15937;DHT22;9163;48.818;8.976;2023-07-31T11:36:41;21.80;1.00
15937;DHT22;9163;48.818;8.976;2023-07-31T11:39:20;21.90;1.00
15937;DHT22;9163;48.818;8.976;2023-07-31T11:41:47;21.50;1.00
15937;DHT22;9163;48.818;8.976;2023-07-31T11:44:15;21.50;1.00
15937;DHT22;9163;48.818;8.976;2023-07-31T11:46:42;21.50;1.00
15937;DHT22;9163;48.818;8.976;2023-07-31T11:49:10;21.60;1.00
15937;DHT22;9163;48.818;8.976;2023-07-31T11:51:37;21.60;1.00
15937;DHT22;9163;48.818;8.976;2023-07-31T11:54:05;21.40;1.00
15937;DHT22;9163;48.818;8.976;2023-07-31T11:56:34;21.70;1.00
15937;DHT22;9163;48.818;8.976;2023-07-31T11:59:02;22.00;1.00
15937;DHT22;9163;48.818;8.976;2023-07-31T12:01:31;21.90;1.00
15937;DHT22;9163;48.818;8.976;2023-07-31T12:03:59;21.80;1.00
15937;DHT22;9163;48.818;8.976;2023-07-31T12:06:33;22.00;1.00
15937;DHT22;9163;48.818;8.976;2023-07-31T12:09:02;21.90;1.00
15937;DHT22;9163;48.818;8.976;2023-07-31T12:11:29;21.60;1.00
15937;DHT22;9163;48.818;8.976;2023-07-31T12:13:58;21.70;1.00
15937;DHT22;9163;48.818;8.976;2023-07-31T12:16:26;21.80;1.00
15937;DHT22;9163;48.818;8.976;2023-07-31T12:18:54;21.60;1.00
15937;DHT22;9163;48.818;8.976;2023-07-31T12:21:21;21.70;1.00
15937;DHT22;9163;48.818;8.976;2023-07-31T12:23:48;21.80;1.00
15937;DHT22;9163;48.818;8.976;2023-07-31T12:26:16;21.60;1.00
15937;DHT22;9163;48.818;8.976;2023-07-31T12:28:45;21.50;1.00
15937;DHT22;9163;48.818;8.976;2023-07-31T12:31:15;21.50;1.00
15937;DHT22;9163;48.818;8.976;2023-07-31T12:33:45;21.50;1.00
15937;DHT22;9163;48.818;8.976;2023-07-31T12:36:15;21.70;1.00
15937;DHT22;9163;48.818;8.976;2023-07-31T12:38:43;21.70;1.00
15937;DHT22;9163;48.818;8.976;2023-07-31T12:41:11;21.80;1.00
15937;DHT22;9163;48.818;8.976;2023-07-31T12:43:40;21.80;1.00
15937;DHT22;9163;48.818;8.976;2023-07-31T12:46:08;22.00;1.00
15937;DHT22;9163;48.818;8.976;2023-07-31T12:48:38;22.00;1.00
15937;DHT22;9163;48.818;8.976;2023-07-31T12:51:06;21.80;1.00
15937;DHT22;9163;48.818;8.976;2023-07-31T12:53:33;22.00;1.00
15937;DHT22;9163;48.818;8.976;2023-07-31T12:56:01;21.90;1.00
15937;DHT22;9163;48.818;8.976;2023-07-31T12:58:28;21.90;1.00
15937;DHT22;9163;48.818;8.976;2023-07-31T13:00:55;22.10;1.00
15937;DHT22;9163;48.818;8.976;2023-07-31T13:03:23;21.80;1.00
15937;DHT22;9163;48.818;8.976;2023-07-31T13:05:52;22.00;1.00
15937;DHT22;9163;48.818;8.976;2023-07-31T13:08:19;22.00;1.00
15937;DHT22;9163;48.818;8.976;2023-07-31T13:10:47;22.10;1.00
15937;DHT22;9163;48.818;8.976;2023-07-31T13:13:14;22.00;1.00
15937;DHT22;9163;48.818;8.976;2023-07-31T13:15:43;21.90;1.00
15937;DHT22;9163;48.818;8.976;2023-07-31T13:18:11;21.90;1.00
15937;DHT22;9163;48.818;8.976;2023-07-31T13:20:38;22.00;1.00
15937;DHT22;9163;48.818;8.976;2023-07-31T13:23:06;22.30;1.00
15937;DHT22;9163;48.818;8.976;2023-07-31T13:25:34;22.60;1.00
15937;DHT22;9163;48.818;8.976;2023-07-31T13:28:01;22.30;1.00
15937;DHT22;9163;48.818;8.976;2023-07-31T13:30:28;22.30;1.00
15937;DHT22;9163;48.818;8.976;2023-07-31T13:32:55;22.50;1.00
15937;DHT22;9163;48.818;8.976;2023-07-31T13:35:22;22.40;1.00
15937;DHT22;9163;48.818;8.976;2023-07-31T13:37:50;22.20;1.00
15937;DHT22;9163;48.818;8.976;2023-07-31T13:40:18;22.50;1.00
15937;DHT22;9163;48.818;8.976;2023-07-31T13:42:46;22.30;1.00
15937;DHT22;9163;48.818;8.976;2023-07-31T13:45:14;22.30;1.00
15937;DHT22;9163;48.818;8.976;2023-07-31T13:47:41;22.30;1.00
15937;DHT22;9163;48.818;8.976;2023-07-31T13:50:09;22.30;1.00
15937;DHT22;9163;48.818;8.976;2023-07-31T13:52:36;22.00;1.00
15937;DHT22;9163;48.818;8.976;2023-07-31T13:55:04;22.10;1.00
15937;DHT22;9163;48.818;8.976;2023-07-31T13:57:33;22.20;1.00
15937;DHT22;9163;48.818;8.976;2023-07-31T14:00:00;22.00;1.00
15937;DHT22;9163;48.818;8.976;2023-07-31T14:02:28;22.30;1.00
15937;DHT22;9163;48.818;8.976;2023-07-31T14:04:55;22.40;1.00
15937;DHT22;9163;48.818;8.976;2023-07-31T14:07:22;22.40;1.00
15937;DHT22;9163;48.818;8.976;2023-07-31T14:09:49;22.50;1.00
15937;DHT22;9163;48.818;8.976;2023-07-31T14:12:17;22.40;1.00
15937;DHT22;9163;48.818;8.976;2023-07-31T14:14:45;22.30;1.00
15937;DHT22;9163;48.818;8.976;2023-07-31T14:17:12;22.40;1.00
15937;DHT22;9163;48.818;8.976;2023-07-31T14:19:40;22.60;1.00
15937;DHT22;9163;48.818;8.976;2023-07-31T14:22:07;22.60;1.00
15937;DHT22;9163;48.818;8.976;2023-07-31T14:24:34;22.70;1.00
15937;DHT22;9163;48.818;8.976;2023-07-31T14:27:01;23.20;1.00
15937;DHT22;9163;48.818;8.976;2023-07-31T14:29:29;23.40;1.00
15937;DHT22;9163;48.818;8.976;2023-07-31T14:31:58;23.10;1.00
15937;DHT22;9163;48.818;8.976;2023-07-31T14:34:25;23.20;1.00
15937;DHT22;9163;48.818;8.976;2023-07-31T14:36:53;23.00;1.00
15937;DHT22;9163;48.818;8.976;2023-07-31T14:39:20;22.90;1.00
15937;DHT22;9163;48.818;8.976;2023-07-31T14:41:47;22.60;1.00
15937;DHT22;9163;48.818;8.976;2023-07-31T14:44:14;22.70;1.00
15937;DHT22;9163;48.818;8.976;2023-07-31T14:46:42;22.70;1.00
15937;DHT22;9163;48.818;8.976;2023-07-31T14:49:10;22.90;1.00
15937;DHT22;9163;48.818;8.976;2023-07-31T14:51:38;22.70;1.00
15937;DHT22;9163;48.818;8.976;2023-07-31T14:54:05;22.50;1.00
15937;DHT22;9163;48.818;8.976;2023-07-31T14:56:32;22.30;1.00
15937;DHT22;9163;48.818;8.976;2023-07-31T14:58:59;22.00;1.00
15937;DHT22;9163;48.818;8.976;2023-07-31T15:01:27;21.90;1.00
15937;DHT22;9163;48.818;8.976;2023-07-31T15:03:54;21.90;1.00
15937;DHT22;9163;48.818;8.976;2023-07-31T15:06:22;22.00;1.00
15937;DHT22;9163;48.818;8.976;2023-07-31T15:08:49;22.10;1.00
15937;DHT22;9163;48.818;8.976;2023-07-31T15:11:17;22.20;1.00
15937;DHT22;9163;48.818;8.976;2023-07-31T15:13:44;22.50;1.00
15937;DHT22;9163;48.818;8.976;2023-07-31T15:16:11;22.60;1.00
15937;DHT22;9163;48.818;8.976;2023-07-31T15:18:38;22.80;1.00
15937;DHT22;9163;48.818;8.976;2023-07-31T15:21:06;22.90;1.00
15937;DHT22;9163;48.818;8.976;2023-07-31T15:23:36;23.00;1.00
15937;DHT22;9163;48.818;8.976;2023-07-31T15:26:04;23.00;1.00
15937;DHT22;9163;48.818;8.976;2023-07-31T15:28:32;23.20;1.00
15937;DHT22;9163;48.818;8.976;2023-07-31T15:31:00;23.10;1.00
15937;DHT22;9163;48.818;8.976;2023-07-31T15:33:28;23.10;1.00
15937;DHT22;9163;48.818;8.976;2023-07-31T15:35:55;22.90;1.00
15937;DHT22;9163;48.818;8.976;2023-07-31T15:38:23;23.00;1.00
15937;DHT22;9163;48.818;8.976;2023-07-31T15:40:52;22.90;1.00
15937;DHT22;9163;48.818;8.976;2023-07-31T15:43:20;22.90;1.00
15937;DHT22;9163;48.818;8.976;2023-07-31T15:45:48;23.00;1.00
15937;DHT22;9163;48.818;8.976;2023-07-31T15:48:15;23.00;1.00
15937;DHT22;9163;48.818;8.976;2023-07-31T15:50:42;23.00;1.00
15937;DHT22;9163;48.818;8.976;2023-07-31T15:53:09;23.20;1.00
15937;DHT22;9163;48.818;8.976;2023-07-31T15:55:37;23.30;1.00
15937;DHT22;9163;48.818;8.976;2023-07-31T15:58:05;23.20;1.00
15937;DHT22;9163;48.818;8.976;2023-07-31T16:00:33;22.90;1.00